Time;durP1;ratioP1;P1;durP2;ratioP2;P2;SDS_P1;SDS_P2;PMS_P1;PMS_P2;Temp;Humidity;BMP_temperature;BMP_pressure;BME280_temperature;BME280_humidity;BME280_pressure;Samples;Min_cycle;Max_cycle;Signal;HPM_P1;HPM_P2
2022/10/05 00:01:13;;;;;;;5.22;2.90;;;;;;;;;;4375403;32;20027;-76
2022/10/05 00:03:40;;;;;;;4.12;3.20;;;;;;;;;;4375827;32;20051;-76
2022/10/05 00:06:05;;;;;;;3.17;2.55;;;;;;;;;;4375725;32;20405;-76
2022/10/05 00:08:46;;;;;;;3.50;2.70;;;;;;;;;;4374994;32;20027;-76
2022/10/05 00:11:15;;;;;;;4.12;2.62;;;;;;;;;;4361639;32;20023;-76
2022/10/05 00:13:41;;;;;;;5.37;3.37;;;;;;;;;;4375828;32;20073;-76
2022/10/05 00:16:09;;;;;;;3.35;2.72;;;;;;;;;;4375241;32;20365;-76
2022/10/05 00:18:35;;;;;;;5.00;2.70;;;;;;;;;;4375056;32;20031;-76
2022/10/05 00:21:03;;;;;;;5.35;2.80;;;;;;;;;;4378103;32;20079;-76
2022/10/05 00:23:34;;;;;;;5.85;3.03;;;;;;;;;;4378600;32;20126;-76
2022/10/05 00:26:16;;;;;;;4.18;3.22;;;;;;;;;;4379241;32;20408;-76
2022/10/05 00:29:20;;;;;;;;;;;;;;;;;;;;;
2022/10/05 00:35:31;;;;;;;3.62;2.85;;;;;;;;;;4279380;33;20025;-76
2022/10/05 00:37:56;;;;;;;4.12;2.58;;;;;;;;;;4301175;28;20056;-69
2022/10/05 00:40:40;;;;;;;4.03;3.20;;;;;;;;;;4360826;33;20441;-69
2022/10/05 00:43:08;;;;;;;4.07;3.15;;;;;;;;;;4361335;33;20509;-68
2022/10/05 00:45:39;;;;;;;6.40;3.42;;;;;;;;;;4363446;33;20030;-69
2022/10/05 00:48:15;;;;;;;7.10;3.33;;;;;;;;;;4361250;33;20100;-69
2022/10/05 00:50:47;;;;;;;5.53;3.15;;;;;;;;;;4362434;33;20038;-68
2022/10/05 00:53:31;;;;;;;5.82;3.17;;;;;;;;;;4363055;32;20422;-68
2022/10/05 00:56:00;;;;;;;5.80;3.53;;;;;;;;;;4346622;33;20438;-70
2022/10/05 00:58:42;;;;;;;4.72;3.20;;;;;;;;;;4357591;33;20082;-69
2022/10/05 01:01:10;;;;;;;8.23;3.67;;;;;;;;;;4361482;33;20097;-67
2022/10/05 01:03:46;;;;;;;4.12;2.80;;;;;;;;;;4362136;33;20035;-67
2022/10/05 01:06:11;;;;;;;;;;;;;;;;;;4362798;32;20108;-68
2022/10/05 01:08:45;;;;;;;4.03;2.83;;;;;;;;;;4361730;32;19935;-69
2022/10/05 01:11:16;;;;;;;5.87;3.47;;;;;;;;;;4347497;33;20528;-68
2022/10/05 01:13:41;;;;;;;6.15;3.40;;;;;;;;;;4361517;33;20078;-68
2022/10/05 01:16:07;;;;;;;4.22;3.22;;;;;;;;;;4362759;33;20365;-68
2022/10/05 01:18:38;;;;;;;8.20;4.10;;;;;;;;;;4360329;33;20135;-69
2022/10/05 01:21:12;;;;;;;5.95;4.45;;;;;;;;;;4361487;33;20311;-69
2022/10/05 01:23:37;;;;;;;7.70;4.87;;;;;;;;;;4361320;33;20027;-69
2022/10/05 01:26:21;;;;;;;8.02;5.37;;;;;;;;;;4361817;33;20058;-69
2022/10/05 01:28:53;;;;;;;9.65;6.32;;;;;;;;;;4361493;33;20364;-68
2022/10/05 01:31:32;;;;;;;12.43;6.93;;;;;;;;;;4360590;32;20031;-69
2022/10/05 01:34:03;;;;;;;9.68;6.72;;;;;;;;;;4361250;33;20103;-69
2022/10/05 01:36:33;;;;;;;10.32;7.07;;;;;;;;;;4360614;33;20027;-68
2022/10/05 01:38:58;;;;;;;11.77;7.55;;;;;;;;;;4361794;32;20430;-69
2022/10/05 01:41:29;;;;;;;9.70;7.55;;;;;;;;;;4361864;32;20054;-68
2022/10/05 01:44:14;;;;;;;12.23;7.20;;;;;;;;;;4361880;32;20035;-69
2022/10/05 01:46:49;;;;;;;9.18;7.60;;;;;;;;;;4361772;32;20349;-68
2022/10/05 01:49:50;;;;;;;12.00;7.32;;;;;;;;;;4348031;33;20357;-69
2022/10/05 01:52:25;;;;;;;14.60;7.75;;;;;;;;;;4287942;33;20041;-69
2022/10/05 01:55:09;;;;;;;11.93;7.43;;;;;;;;;;4336614;33;20020;-69
2022/10/05 01:58:09;;;;;;;9.55;6.75;;;;;;;;;;4360410;33;20107;-68
2022/10/05 02:00:55;;;;;;;15.70;7.20;;;;;;;;;;4314270;33;20082;-68
2022/10/05 02:03:23;;;;;;;7.93;6.68;;;;;;;;;;4320753;33;20487;-68
2022/10/05 02:05:55;;;;;;;10.10;6.65;;;;;;;;;;4362747;32;20457;-68
2022/10/05 02:08:22;;;;;;;10.85;7.15;;;;;;;;;;4347233;33;20035;-69
2022/10/05 02:10:56;;;;;;;12.65;7.05;;;;;;;;;;4362957;32;20031;-69
2022/10/05 02:13:25;;;;;;;11.85;7.32;;;;;;;;;;4351798;32;20117;-69
2022/10/05 02:15:53;;;;;;;10.88;6.72;;;;;;;;;;4360866;32;20095;-68
2022/10/05 02:18:20;;;;;;;8.95;7.20;;;;;;;;;;4362398;32;20085;-69
2022/10/05 02:20:47;;;;;;;12.13;7.20;;;;;;;;;;4361045;32;20051;-69
2022/10/05 02:23:25;;;;;;;12.93;7.62;;;;;;;;;;4361129;32;20035;-68
2022/10/05 02:25:51;;;;;;;15.13;8.63;;;;;;;;;;4362500;32;20058;-68
2022/10/05 02:28:19;;;;;;;9.43;6.78;;;;;;;;;;4361156;32;20366;-68
2022/10/05 02:30:59;;;;;;;9.88;8.18;;;;;;;;;;4346802;33;20448;-67
2022/10/05 02:33:24;;;;;;;15.55;7.82;;;;;;;;;;4361096;32;20055;-68
2022/10/05 02:35:49;;;;;;;12.68;8.38;;;;;;;;;;4361885;32;20023;-68
2022/10/05 02:38:27;;;;;;;11.20;7.95;;;;;;;;;;4361600;32;20270;-69
2022/10/05 02:41:07;;;;;;;13.05;8.88;;;;;;;;;;4362707;32;20070;-68
2022/10/05 02:43:40;;;;;;;13.20;9.07;;;;;;;;;;4360882;32;20501;-68
2022/10/05 02:46:24;;;;;;;12.93;8.05;;;;;;;;;;4360897;32;20027;-69
2022/10/05 02:49:08;;;;;;;11.82;7.78;;;;;;;;;;4348529;32;20051;-68
2022/10/05 02:51:48;;;;;;;12.52;7.12;;;;;;;;;;4361990;32;20082;-68
2022/10/05 02:54:32;;;;;;;11.55;8.13;;;;;;;;;;4361333;32;20031;-69
2022/10/05 02:57:08;;;;;;;12.73;8.38;;;;;;;;;;4345729;33;20444;-68
2022/10/05 02:59:38;;;;;;;11.80;8.57;;;;;;;;;;4353129;33;20138;-69
2022/10/05 03:02:25;;;;;;;9.00;7.18;;;;;;;;;;4361905;32;20475;-69
2022/10/05 03:04:50;;;;;;;10.63;8.05;;;;;;;;;;4346593;33;20421;-69
2022/10/05 03:07:18;;;;;;;9.52;7.50;;;;;;;;;;4360299;32;20099;-69
2022/10/05 03:09:48;;;;;;;11.43;7.30;;;;;;;;;;4359204;32;20027;-68
2022/10/05 03:12:13;;;;;;;11.85;7.28;;;;;;;;;;4360958;32;20468;-68
2022/10/05 03:14:49;;;;;;;13.73;7.15;;;;;;;;;;4361982;32;20090;-68
2022/10/05 03:17:19;;;;;;;11.23;7.15;;;;;;;;;;4346657;33;20069;-70
2022/10/05 03:20:03;;;;;;;13.43;8.30;;;;;;;;;;4361249;32;20142;-68
2022/10/05 03:22:28;;;;;;;10.70;6.65;;;;;;;;;;4361746;32;20058;-68
2022/10/05 03:24:53;;;;;;;10.20;7.07;;;;;;;;;;4360343;32;20035;-68
2022/10/05 03:27:45;;;;;;;9.10;6.55;;;;;;;;;;4359884;32;20167;-68
2022/10/05 03:30:33;;;;;;;11.10;7.32;;;;;;;;;;4343934;33;20346;-68
2022/10/05 03:33:18;;;;;;;11.50;7.55;;;;;;;;;;4361410;32;20043;-69
2022/10/05 03:35:55;;;;;;;10.00;7.68;;;;;;;;;;4359676;32;20082;-68
2022/10/05 03:38:26;;;;;;;15.43;7.60;;;;;;;;;;4346092;33;20503;-70
2022/10/05 03:40:55;;;;;;;13.15;7.85;;;;;;;;;;4360903;32;20101;-69
2022/10/05 03:43:33;;;;;;;9.60;7.97;;;;;;;;;;4353387;32;20053;-69
2022/10/05 03:46:07;;;;;;;11.68;7.85;;;;;;;;;;4375334;32;20060;-68
2022/10/05 03:48:38;;;;;;;12.98;7.87;;;;;;;;;;4375092;32;20023;-67
2022/10/05 03:51:07;;;;;;;11.88;7.68;;;;;;;;;;4374499;32;20058;-69
2022/10/05 03:53:44;;;;;;;8.85;6.55;;;;;;;;;;4360823;32;20459;-69
2022/10/05 03:56:15;;;;;;;8.20;6.20;;;;;;;;;;4375461;32;20085;-68
2022/10/05 03:58:49;;;;;;;11.82;6.10;;;;;;;;;;4374612;32;20401;-70
2022/10/05 04:01:18;;;;;;;8.73;6.10;;;;;;;;;;4376641;32;20031;-68
2022/10/05 04:03:44;;;;;;;11.35;6.43;;;;;;;;;;4361459;32;20422;-68
2022/10/05 04:06:10;;;;;;;9.52;6.03;;;;;;;;;;4359735;32;20039;-68
2022/10/05 04:08:43;;;;;;;7.50;5.70;;;;;;;;;;4360821;32;20057;-69
2022/10/05 04:11:11;;;;;;;10.95;6.55;;;;;;;;;;4361922;32;20154;-71
2022/10/05 04:13:38;;;;;;;7.43;5.82;;;;;;;;;;4374527;32;20027;-68
2022/10/05 04:16:20;;;;;;;7.30;5.62;;;;;;;;;;4374867;32;20085;-68
2022/10/05 04:18:57;;;;;;;11.35;5.10;;;;;;;;;;4374253;32;20502;-68
2022/10/05 04:21:24;;;;;;;8.05;5.05;;;;;;;;;;4374006;32;20070;-68
2022/10/05 04:23:54;;;;;;;5.32;3.97;;;;;;;;;;4375596;32;20031;-68
2022/10/05 04:26:25;;;;;;;6.53;3.50;;;;;;;;;;4364856;32;20108;-68
2022/10/05 04:29:13;;;;;;;6.62;3.70;;;;;;;;;;4361982;32;20362;-68
2022/10/05 04:31:49;;;;;;;6.72;4.87;;;;;;;;;;4355679;33;20054;-70
2022/10/05 04:34:33;;;;;;;5.80;3.20;;;;;;;;;;4359796;32;20027;-68
2022/10/05 04:37:00;;;;;;;4.28;2.72;;;;;;;;;;4360457;32;20023;-69
2022/10/05 04:39:28;;;;;;;4.78;3.12;;;;;;;;;;4356236;32;20412;-70
2022/10/05 04:42:01;;;;;;;3.62;2.85;;;;;;;;;;4361173;33;20372;-69
2022/10/05 04:44:29;;;;;;;4.47;2.60;;;;;;;;;;4360761;32;20049;-68
2022/10/05 04:47:12;;;;;;;5.07;2.40;;;;;;;;;;4359265;33;20139;-69
2022/10/05 04:49:40;;;;;;;2.70;1.90;;;;;;;;;;4359968;33;20405;-69
2022/10/05 04:52:08;;;;;;;3.72;2.37;;;;;;;;;;4360176;33;20052;-68
2022/10/05 04:54:45;;;;;;;3.15;1.92;;;;;;;;;;4359623;33;20085;-69
2022/10/05 04:57:14;;;;;;;4.05;1.83;;;;;;;;;;4357898;33;20093;-69
2022/10/05 04:59:42;;;;;;;5.80;1.70;;;;;;;;;;4359792;33;20134;-70
2022/10/05 05:02:24;;;;;;;3.92;2.20;;;;;;;;;;4345309;33;20420;-69
2022/10/05 05:05:01;;;;;;;3.20;2.05;;;;;;;;;;4359772;32;20043;-69
2022/10/05 05:07:26;;;;;;;2.00;1.45;;;;;;;;;;4361755;32;20150;-69
2022/10/05 05:09:52;;;;;;;1.40;1.30;;;;;;;;;;4361857;32;20063;-70
2022/10/05 05:12:17;;;;;;;2.25;1.40;;;;;;;;;;4362126;32;20505;-69
2022/10/05 05:14:42;;;;;;;5.30;1.83;;;;;;;;;;4363465;32;20496;-68
2022/10/05 05:17:07;;;;;;;2.80;1.98;;;;;;;;;;4361960;32;20047;-69
2022/10/05 05:20:12;;;;;;;2.17;1.40;;;;;;;;;;4347481;33;20268;-69
2022/10/05 05:22:42;;;;;;;3.67;1.50;;;;;;;;;;4286260;33;20439;-70
2022/10/05 05:25:26;;;;;;;2.30;1.70;;;;;;;;;;4287084;33;20066;-69
2022/10/05 05:27:51;;;;;;;3.10;2.08;;;;;;;;;;4332972;33;20146;-69
2022/10/05 05:30:34;;;;;;;1.37;1.10;;;;;;;;;;4363286;32;20098;-68
2022/10/05 05:33:13;;;;;;;4.50;1.65;;;;;;;;;;4361439;32;20541;-69
2022/10/05 05:35:57;;;;;;;1.65;1.50;;;;;;;;;;4361326;32;20055;-69
2022/10/05 05:38:29;;;;;;;2.65;1.62;;;;;;;;;;4360756;33;20073;-69
2022/10/05 05:41:13;;;;;;;3.17;1.80;;;;;;;;;;4352467;32;20071;-70
2022/10/05 05:43:42;;;;;;;5.80;2.08;;;;;;;;;;4334764;33;20069;-69
2022/10/05 05:46:15;;;;;;;3.30;1.67;;;;;;;;;;4354273;33;20058;-69
2022/10/05 05:48:42;;;;;;;1.35;1.25;;;;;;;;;;4347953;33;20409;-69
2022/10/05 05:51:16;;;;;;;4.55;1.87;;;;;;;;;;4359876;32;20461;-68
2022/10/05 05:53:43;;;;;;;1.73;1.50;;;;;;;;;;4362390;32;20058;-68
2022/10/05 05:56:26;;;;;;;2.05;1.70;;;;;;;;;;4360911;32;20414;-69
2022/10/05 05:59:00;;;;;;;3.65;1.83;;;;;;;;;;4351277;32;20093;-68
2022/10/05 06:01:29;;;;;;;4.55;2.37;;;;;;;;;;4374252;32;20028;-69
2022/10/05 06:04:03;;;;;;;3.05;1.52;;;;;;;;;;4365516;32;20026;-69
2022/10/05 06:06:34;;;;;;;4.47;1.92;;;;;;;;;;4374505;32;20102;-69
2022/10/05 06:09:02;;;;;;;5.07;1.75;;;;;;;;;;4375802;32;20110;-69
2022/10/05 06:11:33;;;;;;;3.20;1.87;;;;;;;;;;4357215;32;20047;-69
2022/10/05 06:14:00;;;;;;;4.35;2.05;;;;;;;;;;4374707;32;20345;-67
2022/10/05 06:16:30;;;;;;;2.25;1.75;;;;;;;;;;4360190;32;20092;-69
2022/10/05 06:19:03;;;;;;;3.33;2.33;;;;;;;;;;4372242;32;20047;-69
2022/10/05 06:21:52;;;;;;;3.53;2.15;;;;;;;;;;4371297;32;20053;-70
2022/10/05 06:24:21;;;;;;;5.18;2.17;;;;;;;;;;4375691;32;20042;-69
2022/10/05 06:27:05;;;;;;;5.03;2.50;;;;;;;;;;4370773;32;20096;-69
2022/10/05 06:29:40;;;;;;;7.47;2.60;;;;;;;;;;4365102;32;20357;-68
2022/10/05 06:32:08;;;;;;;3.58;2.33;;;;;;;;;;4377106;32;20035;-69
2022/10/05 06:35:12;;;;;;;7.30;2.40;;;;;;;;;;4376684;32;20364;-69
2022/10/05 06:37:52;;;;;;;3.22;2.12;;;;;;;;;;4300939;33;20036;-69
2022/10/05 06:40:36;;;;;;;3.33;2.22;;;;;;;;;;4297048;33;20070;-69
2022/10/05 06:43:01;;;;;;;3.62;2.05;;;;;;;;;;4351774;32;20481;-69
2022/10/05 06:45:29;;;;;;;4.28;2.42;;;;;;;;;;4372637;32;20015;-68
2022/10/05 06:47:55;;;;;;;3.55;2.60;;;;;;;;;;4360759;32;20027;-69
2022/10/05 06:50:29;;;;;;;3.27;2.73;;;;;;;;;;4360565;32;20077;-68
2022/10/05 06:53:00;;;;;;;7.30;2.75;;;;;;;;;;4361578;32;20135;-69
2022/10/05 06:55:33;;;;;;;6.55;2.10;;;;;;;;;;4360985;32;20022;-68
2022/10/05 06:58:04;;;;;;;4.60;2.47;;;;;;;;;;4361304;32;20019;-68
2022/10/05 07:00:38;;;;;;;3.35;2.40;;;;;;;;;;4360948;32;20070;-69
2022/10/05 07:03:23;;;;;;;4.05;2.50;;;;;;;;;;4361913;32;20054;-69
2022/10/05 07:05:58;;;;;;;4.00;2.62;;;;;;;;;;4360171;32;20019;-68
2022/10/05 07:08:29;;;;;;;3.85;2.85;;;;;;;;;;4362311;32;20019;-68
2022/10/05 07:10:56;;;;;;;4.57;2.08;;;;;;;;;;4358934;32;20331;-69
2022/10/05 07:13:21;;;;;;;6.97;2.70;;;;;;;;;;4361900;32;20036;-68
2022/10/05 07:16:00;;;;;;;2.30;2.10;;;;;;;;;;4360864;32;20073;-68
2022/10/05 07:18:34;;;;;;;4.32;2.20;;;;;;;;;;4360323;33;20027;-69
2022/10/05 07:21:05;;;;;;;4.65;2.40;;;;;;;;;;4360155;32;20023;-69
2022/10/05 07:23:33;;;;;;;7.90;2.42;;;;;;;;;;4361999;32;20049;-69
2022/10/05 07:26:06;;;;;;;8.57;2.45;;;;;;;;;;4360737;32;20024;-69
2022/10/05 07:28:41;;;;;;;3.85;2.40;;;;;;;;;;4368866;32;20054;-69
2022/10/05 07:31:12;;;;;;;2.58;2.33;;;;;;;;;;4362832;32;20088;-67
2022/10/05 07:33:59;;;;;;;7.80;2.72;;;;;;;;;;4375072;32;20042;-69
2022/10/05 07:39:21;;;;;;;4.00;2.92;;;;;;;;;;4372150;32;20062;-69
2022/10/05 07:41:50;;;;;;;3.00;2.62;;;;;;;;;;4361135;32;20031;-70
2022/10/05 07:44:21;;;;;;;3.60;3.17;;;;;;;;;;4360762;32;20028;-69
2022/10/05 07:46:54;;;;;;;6.28;3.35;;;;;;;;;;4361513;32;20023;-68
2022/10/05 07:49:33;;;;;;;5.68;3.47;;;;;;;;;;4366952;32;20035;-70
2022/10/05 07:52:04;;;;;;;3.30;2.72;;;;;;;;;;4362390;32;20061;-69
2022/10/05 07:54:35;;;;;;;5.05;3.22;;;;;;;;;;4376428;32;20030;-70
2022/10/05 07:57:08;;;;;;;5.35;3.20;;;;;;;;;;4374891;32;20355;-68
2022/10/05 07:59:38;;;;;;;5.22;3.20;;;;;;;;;;4374897;32;20404;-69
2022/10/05 08:02:13;;;;;;;4.78;3.12;;;;;;;;;;4362389;32;20098;-68
2022/10/05 08:04:57;;;;;;;4.90;2.97;;;;;;;;;;4363440;32;20080;-68
2022/10/05 08:07:22;;;;;;;4.65;3.08;;;;;;;;;;4375229;32;20116;-68
2022/10/05 08:09:53;;;;;;;4.30;3.00;;;;;;;;;;4367659;32;20019;-69
2022/10/05 08:12:30;;;;;;;7.55;4.47;;;;;;;;;;4360313;33;20307;-69
2022/10/05 08:15:06;;;;;;;11.95;3.55;;;;;;;;;;4360158;33;20035;-68
2022/10/05 08:17:47;;;;;;;5.57;3.42;;;;;;;;;;4359839;32;20379;-68
2022/10/05 08:20:30;;;;;;;3.60;2.83;;;;;;;;;;4359363;33;20032;-68
2022/10/05 08:23:07;;;;;;;7.37;3.12;;;;;;;;;;4360847;33;20334;-68
2022/10/05 08:25:39;;;;;;;4.12;3.03;;;;;;;;;;4361847;32;20124;-69
2022/10/05 08:28:11;;;;;;;6.65;3.20;;;;;;;;;;4359832;33;20077;-70
2022/10/05 08:30:47;;;;;;;5.35;3.42;;;;;;;;;;4360506;32;20019;-69
2022/10/05 08:33:15;;;;;;;5.23;3.40;;;;;;;;;;4374340;32;20085;-69
2022/10/05 08:35:42;;;;;;;4.57;3.10;;;;;;;;;;4374829;32;20494;-68
2022/10/05 08:38:18;;;;;;;5.43;3.25;;;;;;;;;;4365714;32;20638;-68
2022/10/05 08:41:02;;;;;;;8.88;3.33;;;;;;;;;;4357139;32;20039;-68
2022/10/05 08:43:41;;;;;;;6.57;3.00;;;;;;;;;;4362123;33;20098;-70
2022/10/05 08:46:12;;;;;;;8.63;2.85;;;;;;;;;;4355271;32;20031;-69
2022/10/05 08:48:56;;;;;;;4.72;2.67;;;;;;;;;;4347450;32;20039;-69
2022/10/05 08:51:34;;;;;;;5.62;2.80;;;;;;;;;;4358176;32;20050;-68
2022/10/05 08:54:00;;;;;;;7.00;2.65;;;;;;;;;;4355333;32;20027;-69
2022/10/05 08:56:29;;;;;;;4.35;2.42;;;;;;;;;;4357739;32;20024;-68
2022/10/05 08:58:57;;;;;;;5.87;2.65;;;;;;;;;;4362302;32;20114;-68
2022/10/05 09:01:34;;;;;;;3.33;2.60;;;;;;;;;;4351464;32;20464;-69
2022/10/05 09:04:05;;;;;;;8.93;2.47;;;;;;;;;;4356306;33;20042;-68
2022/10/05 09:06:49;;;;;;;4.68;2.53;;;;;;;;;;4362520;32;20042;-69
2022/10/05 09:09:21;;;;;;;3.62;2.55;;;;;;;;;;4360160;32;20106;-69
2022/10/05 09:12:16;;;;;;;4.30;2.58;;;;;;;;;;4359582;32;20026;-67
2022/10/05 09:14:41;;;;;;;4.12;2.67;;;;;;;;;;4360286;32;20027;-69
2022/10/05 09:17:17;;;;;;;3.60;2.83;;;;;;;;;;4359539;32;20154;-69
2022/10/05 09:19:58;;;;;;;4.35;3.00;;;;;;;;;;4348165;33;20059;-68
2022/10/05 09:22:34;;;;;;;4.90;2.55;;;;;;;;;;4363288;32;20039;-69
2022/10/05 09:25:07;;;;;;;4.17;2.43;;;;;;;;;;4361426;32;20069;-69
2022/10/05 09:27:36;;;;;;;3.30;2.60;;;;;;;;;;4362997;32;20194;-69
2022/10/05 09:30:19;;;;;;;3.28;2.72;;;;;;;;;;4362059;32;20111;-69
2022/10/05 09:32:50;;;;;;;3.92;2.00;;;;;;;;;;4342886;33;20500;-69
2022/10/05 09:35:34;;;;;;;3.53;2.33;;;;;;;;;;4361341;32;20054;-69
2022/10/05 09:38:10;;;;;;;5.25;2.10;;;;;;;;;;4359127;33;20057;-69
2022/10/05 09:40:35;;;;;;;5.20;2.85;;;;;;;;;;4347048;32;20035;-69
2022/10/05 09:43:14;;;;;;;5.70;2.42;;;;;;;;;;4334915;33;20016;-67
2022/10/05 09:45:40;;;;;;;4.45;1.95;;;;;;;;;;4345920;33;20053;-69
2022/10/05 09:48:20;;;;;;;5.22;2.05;;;;;;;;;;4346377;33;20020;-69
2022/10/05 09:50:48;;;;;;;4.55;2.12;;;;;;;;;;4347605;33;20071;-69
2022/10/05 09:53:14;;;;;;;4.75;2.72;;;;;;;;;;4325131;33;20128;-70
2022/10/05 09:55:39;;;;;;;8.35;2.78;;;;;;;;;;4344295;33;20043;-68
2022/10/05 09:58:13;;;;;;;3.67;2.47;;;;;;;;;;4347598;33;20557;-68
2022/10/05 10:01:11;;;;;;;7.03;2.87;;;;;;;;;;4345990;33;20227;-68
2022/10/05 10:03:55;;;;;;;6.80;3.37;;;;;;;;;;4313045;33;20024;-69
2022/10/05 10:06:23;;;;;;;4.93;3.20;;;;;;;;;;4345667;33;20339;-69
2022/10/05 10:09:04;;;;;;;4.95;2.83;;;;;;;;;;4347703;33;20046;-70
2022/10/05 10:11:48;;;;;;;7.53;3.53;;;;;;;;;;4333688;33;20028;-68
2022/10/05 10:14:21;;;;;;;4.28;3.05;;;;;;;;;;4345848;33;20050;-67
2022/10/05 10:16:53;;;;;;;3.80;2.60;;;;;;;;;;4346215;33;20024;-69
2022/10/05 10:19:37;;;;;;;5.57;2.58;;;;;;;;;;4346407;33;20028;-68
2022/10/05 10:22:17;;;;;;;6.28;3.00;;;;;;;;;;4345114;33;20105;-69
2022/10/05 10:24:51;;;;;;;8.27;3.12;;;;;;;;;;4344297;33;20059;-69
2022/10/05 10:27:19;;;;;;;5.82;2.70;;;;;;;;;;4345096;33;20098;-68
2022/10/05 10:29:55;;;;;;;4.97;2.90;;;;;;;;;;4346584;33;20050;-68
2022/10/05 10:32:39;;;;;;;6.20;3.37;;;;;;;;;;4351299;32;20031;-69
2022/10/05 10:35:18;;;;;;;6.00;3.60;;;;;;;;;;4347559;33;20029;-69
2022/10/05 10:37:44;;;;;;;8.70;3.40;;;;;;;;;;4346540;32;20024;-68
2022/10/05 10:40:24;;;;;;;6.43;3.15;;;;;;;;;;4348229;32;20027;-69
2022/10/05 10:42:57;;;;;;;7.07;3.00;;;;;;;;;;4333509;33;20036;-68
2022/10/05 10:45:22;;;;;;;4.93;3.20;;;;;;;;;;4345587;33;20110;-69
2022/10/05 10:47:55;;;;;;;8.95;3.53;;;;;;;;;;4346332;33;20035;-68
2022/10/05 10:50:39;;;;;;;10.63;3.33;;;;;;;;;;4332469;33;20027;-68
2022/10/05 10:53:09;;;;;;;7.00;3.40;;;;;;;;;;4344350;32;20430;-69
2022/10/05 10:55:40;;;;;;;7.37;4.03;;;;;;;;;;4346686;32;20046;-69
2022/10/05 10:58:11;;;;;;;8.70;3.37;;;;;;;;;;4349723;33;20090;-70
2022/10/05 11:00:54;;;;;;;10.85;3.67;;;;;;;;;;4349921;32;20024;-70
2022/10/05 11:03:31;;;;;;;8.02;3.47;;;;;;;;;;4332742;33;20024;-69
2022/10/05 11:06:11;;;;;;;5.40;3.05;;;;;;;;;;4346258;33;20085;-68
2022/10/05 11:08:36;;;;;;;8.52;3.60;;;;;;;;;;4361746;32;20019;-69
2022/10/05 11:11:13;;;;;;;5.87;3.90;;;;;;;;;;4343702;33;20058;-68
2022/10/05 11:13:52;;;;;;;6.28;3.20;;;;;;;;;;4351455;32;20032;-68
2022/10/05 11:16:17;;;;;;;6.82;3.50;;;;;;;;;;4348402;32;20389;-70
2022/10/05 11:18:48;;;;;;;7.97;3.90;;;;;;;;;;4341314;33;20027;-69
2022/10/05 11:21:13;;;;;;;13.02;3.22;;;;;;;;;;4357837;32;20019;-69
2022/10/05 11:23:42;;;;;;;6.53;3.47;;;;;;;;;;4331844;33;20094;-70
2022/10/05 11:26:16;;;;;;;6.45;3.60;;;;;;;;;;4346262;32;20128;-70
2022/10/05 11:28:41;;;;;;;6.05;3.55;;;;;;;;;;4360244;32;20059;-69
2022/10/05 11:31:19;;;;;;;6.35;3.28;;;;;;;;;;4359568;32;20042;-68
2022/10/05 11:33:47;;;;;;;6.90;3.70;;;;;;;;;;4357822;32;20066;-70
2022/10/05 11:36:31;;;;;;;6.78;3.55;;;;;;;;;;4361551;32;20081;-69
2022/10/05 11:39:22;;;;;;;9.95;3.50;;;;;;;;;;4360064;32;20039;-72
2022/10/05 11:42:09;;;;;;;6.18;3.35;;;;;;;;;;4342529;33;20102;-69
2022/10/05 11:44:48;;;;;;;5.22;3.40;;;;;;;;;;4359831;33;20308;-69
2022/10/05 11:47:13;;;;;;;5.85;3.08;;;;;;;;;;4359835;32;20023;-69
2022/10/05 11:49:38;;;;;;;10.52;3.60;;;;;;;;;;4359766;32;20125;-70
2022/10/05 11:52:09;;;;;;;7.37;3.17;;;;;;;;;;4361270;32;20206;-69
2022/10/05 11:54:40;;;;;;;8.02;3.37;;;;;;;;;;4360495;32;20107;-69
2022/10/05 11:57:08;;;;;;;7.75;4.00;;;;;;;;;;4359547;32;20057;-69
2022/10/05 11:59:33;;;;;;;7.40;3.92;;;;;;;;;;4345035;33;20090;-68
2022/10/05 12:02:16;;;;;;;8.65;3.42;;;;;;;;;;4358998;32;20054;-68
2022/10/05 12:04:56;;;;;;;12.82;3.60;;;;;;;;;;4359923;32;20019;-68
2022/10/05 12:07:21;;;;;;;7.95;3.50;;;;;;;;;;4359737;32;20057;-69
2022/10/05 12:12:44;;;;;;;11.55;5.18;;;;;;;;;;4359368;33;20457;-69
2022/10/05 12:15:29;;;;;;;8.90;4.40;;;;;;;;;;4361637;32;20039;-68
2022/10/05 12:18:24;;;;;;;9.82;4.20;;;;;;;;;;4362439;32;20410;-68
2022/10/05 12:20:58;;;;;;;6.15;4.32;;;;;;;;;;4352404;33;20077;-67
2022/10/05 12:23:29;;;;;;;8.05;3.87;;;;;;;;;;4362579;32;20019;-68
2022/10/05 12:25:54;;;;;;;7.22;3.83;;;;;;;;;;4363031;32;20015;-69
2022/10/05 12:28:22;;;;;;;13.65;4.12;;;;;;;;;;4362634;32;20088;-68
2022/10/05 12:30:47;;;;;;;6.12;3.67;;;;;;;;;;4362284;32;20145;-67
2022/10/05 12:33:18;;;;;;;7.75;4.20;;;;;;;;;;4363343;32;20035;-68
2022/10/05 12:35:48;;;;;;;5.45;3.58;;;;;;;;;;4363627;32;20390;-68
2022/10/05 12:38:32;;;;;;;7.12;3.70;;;;;;;;;;4362260;32;20035;-68
2022/10/05 12:41:03;;;;;;;10.90;3.97;;;;;;;;;;4362287;32;20065;-67
2022/10/05 12:43:53;;;;;;;8.30;3.40;;;;;;;;;;4348622;33;20053;-69
2022/10/05 12:46:21;;;;;;;7.70;3.72;;;;;;;;;;4361949;32;20023;-67
2022/10/05 12:48:51;;;;;;;7.97;3.40;;;;;;;;;;4362349;32;20050;-69
2022/10/05 12:51:35;;;;;;;6.35;3.22;;;;;;;;;;4362337;32;20097;-69
2022/10/05 12:54:03;;;;;;;5.20;3.25;;;;;;;;;;4362006;32;20020;-68
2022/10/05 12:56:47;;;;;;;7.30;3.55;;;;;;;;;;4361439;32;20061;-68
2022/10/05 12:59:18;;;;;;;9.48;3.53;;;;;;;;;;4363201;32;20062;-68
2022/10/05 13:01:58;;;;;;;8.10;3.42;;;;;;;;;;4363002;32;20118;-68
2022/10/05 13:04:27;;;;;;;6.97;4.40;;;;;;;;;;4361414;32;20023;-69
2022/10/05 13:06:52;;;;;;;10.10;4.05;;;;;;;;;;4363379;32;20058;-68
2022/10/05 13:09:27;;;;;;;5.22;3.22;;;;;;;;;;4361604;32;20049;-69
2022/10/05 13:11:56;;;;;;;8.32;4.10;;;;;;;;;;4362942;32;20138;-68
2022/10/05 13:14:37;;;;;;;7.50;3.67;;;;;;;;;;4363103;32;20035;-68
2022/10/05 13:17:07;;;;;;;9.85;3.80;;;;;;;;;;4361109;32;20059;-69
2022/10/05 13:19:38;;;;;;;7.20;4.75;;;;;;;;;;4363190;32;20062;-68
2022/10/05 13:22:04;;;;;;;7.93;3.35;;;;;;;;;;4362945;32;20035;-68
2022/10/05 13:24:33;;;;;;;8.55;4.03;;;;;;;;;;4362779;32;20015;-69
2022/10/05 13:27:09;;;;;;;7.68;3.65;;;;;;;;;;4361415;32;20116;-69
2022/10/05 13:29:38;;;;;;;5.67;3.47;;;;;;;;;;4362917;32;20031;-69
2022/10/05 13:32:03;;;;;;;4.43;3.12;;;;;;;;;;4360634;32;20058;-69
2022/10/05 13:34:47;;;;;;;5.97;3.70;;;;;;;;;;4360811;32;20018;-69
2022/10/05 13:37:30;;;;;;;7.95;3.80;;;;;;;;;;4362568;32;20080;-69
2022/10/05 13:40:05;;;;;;;5.53;3.45;;;;;;;;;;4362276;32;20036;-69
2022/10/05 13:42:36;;;;;;;5.95;3.45;;;;;;;;;;4362314;32;20016;-70
2022/10/05 13:45:09;;;;;;;6.18;2.80;;;;;;;;;;4362671;32;20035;-69
2022/10/05 13:47:47;;;;;;;5.50;3.20;;;;;;;;;;4361150;32;20043;-69
2022/10/05 13:50:17;;;;;;;7.28;3.40;;;;;;;;;;4361787;32;20498;-68
2022/10/05 13:53:01;;;;;;;7.47;2.75;;;;;;;;;;4360134;32;20063;-68
2022/10/05 13:55:33;;;;;;;6.03;2.97;;;;;;;;;;4362385;32;20054;-69
2022/10/05 13:58:04;;;;;;;4.47;2.55;;;;;;;;;;4360012;32;20196;-69
2022/10/05 14:00:33;;;;;;;3.75;2.30;;;;;;;;;;4347428;33;20363;-68
2022/10/05 14:02:59;;;;;;;8.73;2.62;;;;;;;;;;4361264;32;20035;-69
2022/10/05 14:05:29;;;;;;;6.68;2.95;;;;;;;;;;4359396;32;20425;-70
2022/10/05 14:08:14;;;;;;;4.37;2.47;;;;;;;;;;4361522;32;20039;-69
2022/10/05 14:10:41;;;;;;;5.93;2.70;;;;;;;;;;4358206;32;20023;-67
2022/10/05 14:13:19;;;;;;;9.55;2.70;;;;;;;;;;4359414;33;20027;-69
2022/10/05 14:15:55;;;;;;;6.18;3.15;;;;;;;;;;4357370;33;20129;-69
2022/10/05 14:18:20;;;;;;;;;;;;;;;;;;4361134;32;20106;-70
2022/10/05 14:21:04;;;;;;;4.90;3.60;;;;;;;;;;4341857;33;19953;-69
2022/10/05 14:23:29;;;;;;;5.07;3.37;;;;;;;;;;4361277;32;20027;-68
2022/10/05 14:25:55;;;;;;;6.32;3.50;;;;;;;;;;4359607;32;20417;-68
2022/10/05 14:28:23;;;;;;;6.47;2.90;;;;;;;;;;4361852;32;20114;-67
2022/10/05 14:30:59;;;;;;;6.05;3.35;;;;;;;;;;4361172;32;20051;-70
2022/10/05 14:33:26;;;;;;;4.82;2.95;;;;;;;;;;4360134;32;20023;-70
2022/10/05 14:35:53;;;;;;;9.48;3.33;;;;;;;;;;4360583;32;20069;-69
2022/10/05 14:38:30;;;;;;;5.60;2.87;;;;;;;;;;4360386;32;20130;-69
2022/10/05 14:41:03;;;;;;;5.47;2.60;;;;;;;;;;4360774;32;20020;-69
2022/10/05 14:43:28;;;;;;;5.90;3.15;;;;;;;;;;4361319;32;20369;-69
2022/10/05 14:45:55;;;;;;;7.05;2.62;;;;;;;;;;4361773;32;20041;-69
2022/10/05 14:48:20;;;;;;;5.55;2.65;;;;;;;;;;4347014;33;20046;-70
2022/10/05 14:50:51;;;;;;;3.42;2.50;;;;;;;;;;4361622;32;20027;-69
2022/10/05 14:53:20;;;;;;;6.57;2.80;;;;;;;;;;4360675;32;20027;-68
2022/10/05 14:55:45;;;;;;;3.72;2.28;;;;;;;;;;4356890;32;20413;-69
2022/10/05 14:58:24;;;;;;;5.87;2.50;;;;;;;;;;4347658;32;20035;-69
2022/10/05 15:01:15;;;;;;;9.75;2.65;;;;;;;;;;4360796;33;20112;-70
2022/10/05 15:03:56;;;;;;;6.47;2.70;;;;;;;;;;4342769;33;20043;-70
2022/10/05 15:06:27;;;;;;;5.00;2.42;;;;;;;;;;4347803;32;20035;-70
2022/10/05 15:09:11;;;;;;;6.97;2.20;;;;;;;;;;4360232;32;20055;-68
2022/10/05 15:11:45;;;;;;;8.38;3.70;;;;;;;;;;4360963;32;20428;-67
2022/10/05 15:14:20;;;;;;;6.18;2.50;;;;;;;;;;4360411;32;20046;-69
2022/10/05 15:16:48;;;;;;;12.57;3.03;;;;;;;;;;4359718;32;20476;-68
2022/10/05 15:19:21;;;;;;;3.87;2.60;;;;;;;;;;4360344;32;20160;-68
2022/10/05 15:21:47;;;;;;;4.32;2.40;;;;;;;;;;4361019;32;20050;-69
2022/10/05 15:24:20;;;;;;;8.23;3.17;;;;;;;;;;4346924;33;20055;-68
2022/10/05 15:26:50;;;;;;;8.68;2.60;;;;;;;;;;4359929;33;20089;-68
2022/10/05 15:29:26;;;;;;;8.85;2.20;;;;;;;;;;4361466;32;20081;-70
2022/10/05 15:32:20;;;;;;;8.55;2.10;;;;;;;;;;4346980;33;20015;-69